Kezdőlap
METAR-TAF:

METAR-TAF

Repülőterek :

Estherville Municipal Airport

Estherville, Iowa, Amerikai Egyesült Államok

földrajzi szélesség: 43-24-04N, földrajzi hosszúság: 094-44-50W, magasság: 401 m

Jelenlegi meteorológiai megfigyelések

A jelentés 1 órával és 5 perccel ezelõtt készült, 01:52 UTC
Északi szél 15 kt széllökések: 23 kt
Hőmérséklet 11°C
Páratartalom 87%
Légköri nyomás 1009 hPa
Látótávolság: 11.3 km
Szakadozott felhőzet 900 lábon
Borult 1500 lábon
enyhe esõ

METAR: KEST 260152Z AUTO 36015G23KT 7SM -RA BKN009 OVC015 11/09 A2981 RMK AO2 RAB0057 CIG 007V012 SLP098 P0004 T01060094

Idő: 21:57 (02:57 UTC)


TAF: hiányzik

Meteorológiai megfigyelések és előrejelzések több, mint 4000 repülőtéren (METAR és TAF jelentéseket).

A térképen piros és sárga pontok jelzik az elérhető meteorológiai állomásokat.

Mozgassa az egeret a pont fölött, hogy megjelenjen az állomás neve.

Azután kattintson az időjárási megfigyelések és előrejelzések megtekintéséhez.

A térkép megváltoztatása: kattintson a fekete keresztel jelölt zöld gombra ráközelítéshez, a vonallal jelölt zöld gombra távolításhoz, vagy a zöld nyilakra a szomszédos térképek eléréséhez.


METAR-TAF: